Time;durP1;ratioP1;P1;durP2;ratioP2;P2;SDS_P1;SDS_P2;PMS_P1;PMS_P2;Temp;Humidity;BMP_temperature;BMP_pressure;BME280_temperature;BME280_humidity;BME280_pressure;Samples;Min_cycle;Max_cycle;Signal;HPM_P1;HPM_P2
2021/08/30 00:01:34;;;;;;;;;;;18.00;99.90;;;16.99;100.00;100775.41;5008121;28;19957;-65
2021/08/30 00:04:04;;;;;;;;;;;18.00;99.90;;;16.99;100.00;100778.16;5007774;28;19957;-65
2021/08/30 00:06:31;;;;;;;;;;;18.00;99.90;;;17.00;100.00;100779.81;5008059;28;20439;-65
2021/08/30 00:08:58;;;;;;;;;;;18.00;99.90;;;16.99;100.00;100783.66;4985587;28;20455;-65
2021/08/30 00:11:25;;;;;;;;;;;18.00;99.90;;;17.00;100.00;100774.31;5008524;28;19985;-65
2021/08/30 00:13:53;;;;;;;;;;;18.00;99.90;;;16.98;100.00;100774.56;4998188;28;20385;-65
2021/08/30 00:16:20;;;;;;;;;;;18.00;99.90;;;16.99;100.00;100773.47;4968121;28;20398;-65
2021/08/30 00:18:47;;;;;;;;;;;18.00;99.90;;;16.97;100.00;100777.53;4994410;28;19929;-65
2021/08/30 00:21:15;;;;;;;;;;;17.90;99.90;;;16.98;100.00;100779.19;4990153;28;19996;-65
2021/08/30 00:23:42;;;;;;;;;;;18.00;99.90;;;16.97;100.00;100780.28;5007918;28;20397;-65
2021/08/30 00:26:09;;;;;;;;;;;18.00;99.90;;;16.97;100.00;100775.63;5006952;28;19929;-65
2021/08/30 00:28:36;;;;;;;;;;;18.00;99.90;;;16.96;100.00;100773.94;5004279;28;20452;-65
2021/08/30 00:31:03;;;;;;;;;;;17.90;99.90;;;16.97;100.00;100774.78;5007487;28;19972;-65
2021/08/30 00:33:30;;;;;;;;;;;17.90;99.90;;;16.97;100.00;100777.53;4981106;28;19930;-65
2021/08/30 00:35:57;;;;;;;;;;;17.90;99.90;;;16.97;100.00;100772.03;4968150;28;19937;-65
2021/08/30 00:38:26;;;;;;;;;;;17.90;99.90;;;16.95;100.00;100764.00;4987883;28;19964;-65
2021/08/30 00:40:55;;;;;;;;;;;18.00;99.90;;;16.96;100.00;100775.81;4944128;28;1827072;-65
2021/08/30 00:43:22;;;;;;;;;;;17.90;99.90;;;16.96;100.00;100775.81;5007950;28;19975;-65
2021/08/30 00:45:49;;;;;;;;;;;17.90;99.90;;;16.95;100.00;100775.00;5007926;28;20035;-65
2021/08/30 00:48:17;;;;;;;;;;;17.90;99.90;;;16.95;100.00;100768.66;4997668;28;19929;-65
2021/08/30 00:50:44;;;;;;;;;;;17.90;99.90;;;16.95;100.00;100769.50;4990304;28;20342;-65
2021/08/30 00:53:11;;;;;;;;;;;17.90;99.90;;;16.94;100.00;100770.53;4988620;28;19968;-65
2021/08/30 00:55:40;;;;;;;;;;;17.90;99.90;;;16.93;100.00;100774.38;4992044;28;19957;-65
2021/08/30 00:58:07;;;;;;;;;;;17.90;99.90;;;16.92;100.00;100780.09;5000691;28;20502;-65
2021/08/30 01:00:34;;;;;;;;;;;17.90;99.90;;;16.91;100.00;100772.91;5014713;28;19925;-65
2021/08/30 01:03:01;;;;;;;;;;;17.90;99.90;;;16.91;100.00;100775.66;5014416;28;19937;-65
2021/08/30 01:05:28;;;;;;;;;;;17.90;99.90;;;16.90;100.00;100766.56;5013979;28;19926;-65
2021/08/30 01:08:02;;;;;;;;;;;17.90;99.90;;;16.91;100.00;100776.50;5006990;28;19947;-65
2021/08/30 01:10:36;;;;;;;;;;;17.90;99.90;;;16.91;100.00;100773.75;5014347;28;19933;-65
2021/08/30 01:13:07;;;;;;;;;;;17.90;99.90;;;16.91;100.00;100778.41;5014309;28;19936;-65
2021/08/30 01:15:39;;;;;;;;;;;17.90;99.90;;;16.91;100.00;100778.41;5014103;28;20024;-65
2021/08/30 01:18:09;;;;;;;;;;;17.80;99.90;;;16.90;100.00;100779.47;5011449;28;19995;-65
2021/08/30 01:20:45;;;;;;;;;;;17.90;99.90;;;16.89;100.00;100784.13;5014373;28;19934;-65
2021/08/30 01:23:14;;;;;;;;;;;17.90;99.90;;;16.89;100.00;100781.38;5004872;28;20365;-65
2021/08/30 01:25:41;;;;;;;;;;;17.90;99.90;;;16.89;100.00;100786.88;4988063;28;20007;-65
2021/08/30 01:28:10;;;;;;;;;;;17.80;99.90;;;16.88;100.00;100784.34;5000458;28;19980;-65
2021/08/30 01:30:39;;;;;;;;;;;17.80;99.90;;;16.90;100.00;100779.47;5014316;28;20379;-65
2021/08/30 01:33:08;;;;;;;;;;;17.80;99.90;;;16.89;100.00;100786.03;5014098;28;20044;-65
2021/08/30 01:35:36;;;;;;;;;;;17.80;99.90;;;16.89;100.00;100781.38;5013883;28;19933;-65
2021/08/30 01:38:06;;;;;;;;;;;17.80;99.90;;;16.87;100.00;100780.75;5011061;28;20341;-65
2021/08/30 01:40:36;;;;;;;;;;;17.80;99.90;;;16.86;100.00;100781.81;5011093;28;19936;-65
2021/08/30 01:43:04;;;;;;;;;;;17.80;99.90;;;16.86;100.00;100786.47;4995252;28;19984;-65
2021/08/30 01:45:32;;;;;;;;;;;17.80;99.90;;;16.86;100.00;100780.97;5013735;28;20024;-65
2021/08/30 01:48:02;;;;;;;;;;;17.80;99.90;;;16.84;100.00;100785.84;5010651;28;20031;-65
2021/08/30 01:50:32;;;;;;;;;;;17.80;99.90;;;16.81;100.00;100787.94;5013709;28;20343;-65
2021/08/30 01:53:02;;;;;;;;;;;17.80;99.90;;;16.85;100.00;100784.78;5014169;28;19968;-65
2021/08/30 01:55:38;;;;;;;;;;;17.80;99.90;;;16.84;100.00;100789.44;5013653;28;19925;-65
2021/08/30 02:00:51;;;;;;;;;;;17.80;99.90;;;16.84;100.00;100794.09;4974687;28;19934;-65
2021/08/30 02:03:20;;;;;;;;;;;17.80;99.90;;;16.84;100.00;100796.84;4975016;28;19930;-65
2021/08/30 02:05:51;;;;;;;;;;;17.70;99.90;;;16.80;100.00;100794.50;4975688;28;20012;-65
2021/08/30 02:08:22;;;;;;;;;;;17.70;99.90;;;16.77;100.00;100792.19;4997131;28;19968;-65
2021/08/30 02:10:50;;;;;;;;;;;17.70;99.90;;;16.77;100.00;100783.94;5010269;28;20020;-65
2021/08/30 02:13:18;;;;;;;;;;;17.70;99.90;;;16.81;100.00;100796.19;5010747;28;19955;-65
2021/08/30 02:15:47;;;;;;;;;;;17.70;99.90;;;16.81;100.00;100785.19;5010364;28;19979;-65
2021/08/30 02:18:18;;;;;;;;;;;17.70;99.90;;;16.81;100.00;100801.69;5006910;28;19929;-65
2021/08/30 02:20:53;;;;;;;;;;;17.70;99.90;;;16.80;100.00;100788.16;5010467;28;19956;-65
2021/08/30 02:23:23;;;;;;;;;;;17.70;99.90;;;16.78;100.00;100796.63;5010007;28;19937;-65
2021/08/30 02:25:51;;;;;;;;;;;17.80;99.90;;;16.78;100.00;100790.28;5009845;28;19983;-65
2021/08/30 02:28:20;;;;;;;;;;;17.70;99.90;;;16.78;100.00;100793.88;5006959;28;20580;-65
2021/08/30 02:30:48;;;;;;;;;;;17.70;99.90;;;16.78;100.00;100791.13;5008522;28;19936;-65
2021/08/30 02:33:15;;;;;;;;;;;17.70;99.90;;;16.78;100.00;100791.13;4990130;28;19967;-65
2021/08/30 02:35:44;;;;;;;;;;;17.70;99.90;;;16.78;100.00;100791.13;4990286;28;20044;-65
2021/08/30 02:38:14;;;;;;;;;;;17.70;99.90;;;16.76;100.00;100792.41;4996730;28;19930;-65
2021/08/30 02:40:41;;;;;;;;;;;17.70;99.90;;;16.77;100.00;100789.44;5024590;23;19960;-69
2021/08/30 02:43:10;;;;;;;;;;;17.70;99.90;;;16.77;100.00;100792.19;5009414;28;20019;-68
2021/08/30 02:45:38;;;;;;;;;;;17.70;99.90;;;16.73;100.00;100793.66;5008999;28;19930;-69
2021/08/30 02:48:06;;;;;;;;;;;17.50;99.90;;;16.72;100.00;100785.66;5008129;28;19926;-68
2021/08/30 02:50:33;;;;;;;;;;;17.70;99.90;;;16.74;100.00;100786.28;5009006;28;19963;-69
2021/08/30 02:53:01;;;;;;;;;;;17.60;99.90;;;16.74;100.00;100784.38;5009278;28;20020;-68
2021/08/30 02:55:29;;;;;;;;;;;17.60;99.90;;;16.74;100.00;100795.38;5008709;28;19960;-68
2021/08/30 02:57:58;;;;;;;;;;;17.60;99.90;;;16.72;100.00;100789.25;5007905;28;19933;-69
2021/08/30 03:00:26;;;;;;;;;;;17.70;99.90;;;16.74;100.00;100783.53;5009407;28;20680;-68
2021/08/30 03:02:54;;;;;;;;;;;17.60;99.90;;;16.74;100.00;100784.38;5020643;28;19944;-69
2021/08/30 03:05:21;;;;;;;;;;;17.60;99.90;;;16.74;100.00;100776.13;5013316;28;19935;-68
2021/08/30 03:07:49;;;;;;;;;;;17.60;99.90;;;16.73;100.00;100788.16;5008443;28;19933;-68
2021/08/30 03:10:16;;;;;;;;;;;17.60;99.90;;;16.72;100.00;100782.91;5009032;28;19933;-69
2021/08/30 03:12:46;;;;;;;;;;;17.60;99.90;;;16.69;100.00;100786.94;4997738;28;19969;-69
2021/08/30 03:15:17;;;;;;;;;;;17.60;99.90;;;16.70;100.00;100788.63;5008210;28;20730;-68
2021/08/30 03:17:45;;;;;;;;;;;17.60;99.90;;;16.71;100.00;100784.81;5008542;28;20712;-69
2021/08/30 03:20:16;;;;;;;;;;;17.60;99.90;;;16.71;100.00;100784.81;5008167;28;20431;-68
2021/08/30 03:22:43;;;;;;;;;;;17.60;99.90;;;16.72;100.00;100783.75;5005067;28;19929;-69
2021/08/30 03:25:14;;;;;;;;;;;17.60;99.90;;;16.69;100.00;100780.59;5007764;28;19965;-69
2021/08/30 03:27:43;;;;;;;;;;;17.60;99.90;;;16.70;100.00;100791.38;4990283;28;19929;-68
2021/08/30 03:30:14;;;;;;;;;;;17.60;99.90;;;16.67;100.00;100783.56;5008394;28;20494;-68
2021/08/30 03:32:43;;;;;;;;;;;17.60;99.90;;;16.65;100.00;100788.44;5008600;28;19929;-68
2021/08/30 03:35:12;;;;;;;;;;;17.60;99.90;;;16.67;100.00;100788.22;5004932;28;19932;-69
2021/08/30 03:37:39;;;;;;;;;;;17.60;99.90;;;16.66;100.00;100787.38;4990878;28;20415;-68
2021/08/30 03:40:08;;;;;;;;;;;17.60;99.90;;;16.66;100.00;100781.88;5008267;28;20409;-68
2021/08/30 03:42:37;;;;;;;;;;;17.60;99.90;;;16.66;100.00;100781.88;5008370;28;19926;-68
2021/08/30 03:45:05;;;;;;;;;;;17.60;99.90;;;16.63;100.00;100786.97;5007972;28;19929;-68
2021/08/30 03:47:34;;;;;;;;;;;17.60;99.90;;;16.65;100.00;100784.84;5005739;28;19926;-69
2021/08/30 03:50:02;;;;;;;;;;;17.60;99.90;;;16.66;100.00;100783.78;5008222;28;20393;-69
2021/08/30 03:52:30;;;;;;;;;;;17.60;99.90;;;16.67;100.00;100785.47;4989305;28;19971;-68
2021/08/30 03:54:58;;;;;;;;;;;17.60;99.90;;;16.67;100.00;100788.22;5007572;28;19969;-69
2021/08/30 03:57:26;;;;;;;;;;;17.60;99.90;;;16.67;100.00;100789.06;5008012;28;19984;-71
2021/08/30 03:59:55;;;;;;;;;;;17.60;99.90;;;16.67;100.00;100786.31;5007850;28;19929;-71
2021/08/30 04:02:23;;;;;;;;;;;17.60;99.90;;;16.67;100.00;100783.56;4990122;28;19929;-72
2021/08/30 04:04:51;;;;;;;;;;;17.60;99.90;;;16.63;100.00;100782.31;5006453;28;19929;-72
2021/08/30 04:07:19;;;;;;;;;;;17.60;99.90;;;16.66;100.00;100781.03;5007360;28;19972;-70
2021/08/30 04:09:49;;;;;;;;;;;17.60;99.90;;;16.66;100.00;100781.88;5007530;28;20554;-71
2021/08/30 04:12:17;;;;;;;;;;;17.60;99.90;;;16.64;100.00;100783.16;5007710;28;19930;-72
2021/08/30 04:14:44;;;;;;;;;;;17.60;99.90;;;16.64;100.00;100777.66;5007114;28;19960;-71
2021/08/30 04:17:12;;;;;;;;;;;17.60;99.90;;;16.65;100.00;100785.69;5007809;28;19961;-71
2021/08/30 04:19:39;;;;;;;;;;;17.60;99.90;;;16.62;100.00;100780.66;5007550;28;19961;-71
2021/08/30 04:22:07;;;;;;;;;;;17.50;99.90;;;16.63;100.00;100787.81;5007698;28;19948;-71
2021/08/30 04:24:34;;;;;;;;;;;17.50;99.90;;;16.64;100.00;100778.53;5006000;28;19944;-71
2021/08/30 04:27:02;;;;;;;;;;;17.60;99.90;;;16.64;100.00;100784.00;5007362;28;20020;-71
2021/08/30 04:29:31;;;;;;;;;;;17.60;99.90;;;16.66;100.00;100786.53;5006852;28;19936;-71
2021/08/30 04:31:59;;;;;;;;;;;17.60;99.90;;;16.66;100.00;100792.00;5007833;28;20020;-71
2021/08/30 04:34:26;;;;;;;;;;;17.60;99.90;;;16.65;100.00;100795.84;4989298;28;20001;-71
2021/08/30 04:36:53;;;;;;;;;;;17.50;99.90;;;16.64;100.00;100786.75;4989214;28;19940;-72
2021/08/30 04:39:22;;;;;;;;;;;17.60;99.90;;;16.66;100.00;100803.00;5007252;28;20374;-71
2021/08/30 04:41:49;;;;;;;;;;;17.60;99.90;;;16.64;100.00;100788.66;5007129;28;20008;-71
2021/08/30 04:44:16;;;;;;;;;;;17.60;99.90;;;16.63;100.00;100793.31;5007041;28;19925;-70
2021/08/30 04:46:43;;;;;;;;;;;17.60;99.90;;;16.61;100.00;100787.19;5006589;28;19980;-70
2021/08/30 04:49:10;;;;;;;;;;;17.50;99.90;;;16.61;100.00;100789.94;5007041;28;20040;-69
2021/08/30 04:51:38;;;;;;;;;;;17.50;99.90;;;16.61;100.00;100790.78;5007123;28;19933;-69
2021/08/30 04:54:05;;;;;;;;;;;17.60;99.90;;;16.64;100.00;100799.63;5005752;28;19933;-69
2021/08/30 04:56:33;;;;;;;;;;;17.60;99.90;;;16.63;100.00;100793.31;5006598;28;19980;-69
2021/08/30 04:59:01;;;;;;;;;;;17.60;99.90;;;16.63;100.00;100793.31;5005684;28;19984;-70
2021/08/30 05:01:28;;;;;;;;;;;17.60;99.90;;;16.64;100.00;100805.13;5005503;28;19971;-69
2021/08/30 05:03:55;;;;;;;;;;;17.60;99.90;;;16.64;100.00;100803.25;5004198;28;19937;-69
2021/08/30 05:06:22;;;;;;;;;;;17.60;99.90;;;16.65;100.00;100799.44;5007002;28;19926;-70
2021/08/30 05:08:49;;;;;;;;;;;17.60;99.90;;;16.63;100.00;100809.78;5004900;28;19933;-69
2021/08/30 05:11:16;;;;;;;;;;;17.60;99.90;;;16.65;100.00;100806.84;5006676;28;20428;-68
2021/08/30 05:13:44;;;;;;;;;;;17.60;99.90;;;16.62;100.00;100808.13;5008235;28;20412;-68
2021/08/30 05:16:12;;;;;;;;;;;17.60;99.90;;;16.64;100.00;100808.75;5002207;28;20019;-68
2021/08/30 05:18:40;;;;;;;;;;;17.60;99.90;;;16.65;100.00;100809.59;5013316;28;19939;-67
2021/08/30 05:21:07;;;;;;;;;;;17.70;99.90;;;16.66;100.00;100816.75;5025692;28;19957;-69
2021/08/30 05:23:34;;;;;;;;;;;17.70;99.90;;;16.67;100.00;100804.72;5017843;28;19977;-69
2021/08/30 05:26:02;;;;;;;;;;;17.70;99.90;;;16.68;100.00;100814.63;4986575;28;19930;-69
2021/08/30 05:28:29;;;;;;;;;;;17.70;99.90;;;16.67;100.00;100822.03;5006284;28;20011;-69
2021/08/30 05:30:59;;;;;;;;;;;17.70;99.90;;;16.67;100.00;100824.78;5006626;28;20405;-70
2021/08/30 05:33:26;;;;;;;;;;;17.70;99.90;;;16.66;100.00;100830.50;5003718;28;20000;-70
2021/08/30 05:35:53;;;;;;;;;;;17.70;99.90;;;16.63;100.00;100826.28;5004066;28;19998;-70
2021/08/30 05:38:20;;;;;;;;;;;17.70;99.90;;;16.66;100.00;100831.34;5005831;28;19929;-68
2021/08/30 05:40:47;;;;;;;;;;;17.70;99.90;;;16.67;100.00;100826.69;5006721;28;20325;-67
2021/08/30 05:43:14;;;;;;;;;;;17.70;99.90;;;16.68;100.00;100820.13;5008312;28;20013;-68
2021/08/30 05:45:41;;;;;;;;;;;17.70;99.90;;;16.65;100.00;100820.56;5008691;28;19929;-67
2021/08/30 05:48:10;;;;;;;;;;;17.70;99.90;;;16.67;100.00;100822.03;5010320;28;19979;-68
2021/08/30 05:50:37;;;;;;;;;;;17.80;99.90;;;16.67;100.00;100824.78;5010011;28;19925;-67
2021/08/30 05:53:04;;;;;;;;;;;17.80;99.90;;;16.68;100.00;100828.38;5008146;28;19953;-68
2021/08/30 05:55:31;;;;;;;;;;;17.80;99.90;;;16.69;100.00;100828.16;5008688;28;19929;-67
2021/08/30 05:57:58;;;;;;;;;;;17.80;99.90;;;16.71;100.00;100834.28;5010194;28;19936;-68
2021/08/30 06:00:26;;;;;;;;;;;17.80;99.90;;;16.72;100.00;100833.22;5006238;28;20461;-67
2021/08/30 06:02:53;;;;;;;;;;;17.80;99.90;;;16.72;100.00;100830.47;5009413;28;20020;-67
2021/08/30 06:05:21;;;;;;;;;;;17.80;99.90;;;16.71;100.00;100837.03;5025475;28;19929;-67
2021/08/30 06:07:48;;;;;;;;;;;17.80;99.90;;;16.68;100.00;100833.88;5012672;28;20013;-67
2021/08/30 06:10:16;;;;;;;;;;;17.70;99.90;;;16.69;100.00;100836.41;5015033;28;20034;-68
2021/08/30 06:12:44;;;;;;;;;;;17.70;99.90;;;16.71;100.00;100839.78;5003855;28;19925;-67
2021/08/30 06:15:11;;;;;;;;;;;17.70;99.90;;;16.71;100.00;100834.28;4991007;28;20729;-67
2021/08/30 06:17:38;;;;;;;;;;;17.70;99.90;;;16.73;100.00;100837.66;5008757;28;19940;-67
2021/08/30 06:20:07;;;;;;;;;;;17.80;99.90;;;16.74;100.00;100833.84;5011034;28;20010;-67
2021/08/30 06:22:35;;;;;;;;;;;17.80;99.90;;;16.75;100.00;100832.81;5010306;28;19967;-67
2021/08/30 06:25:03;;;;;;;;;;;17.80;99.90;;;16.77;100.00;100838.06;5007704;28;19925;-67
2021/08/30 06:27:30;;;;;;;;;;;17.90;99.90;;;16.79;100.00;100836.81;5010572;28;19959;-67
2021/08/30 06:29:57;;;;;;;;;;;17.90;99.90;;;16.81;100.00;100837.41;5010716;28;20404;-67
2021/08/30 06:32:24;;;;;;;;;;;18.00;99.90;;;16.82;100.00;100827.28;5010607;28;19936;-67
2021/08/30 06:34:51;;;;;;;;;;;18.00;99.90;;;16.83;100.00;100826.25;5008319;28;20412;-67
2021/08/30 06:37:18;;;;;;;;;;;18.00;99.90;;;16.83;100.00;100825.38;5009105;28;19929;-67
2021/08/30 06:39:46;;;;;;;;;;;18.00;99.90;;;16.83;100.00;100826.25;5010167;28;20011;-67
2021/08/30 06:42:13;;;;;;;;;;;18.00;99.90;;;16.84;100.00;100821.59;5029065;28;19968;-68
2021/08/30 06:44:40;;;;;;;;;;;18.00;99.90;;;16.84;100.00;100827.09;5024848;28;20341;-68
2021/08/30 06:47:08;;;;;;;;;;;18.00;99.90;;;16.84;100.00;100824.34;5029797;28;19933;-68
2021/08/30 06:49:35;;;;;;;;;;;18.10;99.90;;;16.88;100.00;100822.81;5029874;28;19925;-67
2021/08/30 06:52:02;;;;;;;;;;;18.10;99.90;;;16.90;100.00;100821.53;5011606;28;20011;-67
2021/08/30 06:54:29;;;;;;;;;;;18.20;99.90;;;16.92;100.00;100829.56;5014096;28;20312;-67
2021/08/30 06:56:58;;;;;;;;;;;18.30;99.90;;;16.95;100.00;100831.91;5009766;28;20476;-68
2021/08/30 06:59:25;;;;;;;;;;;18.30;99.90;;;16.96;100.00;100833.56;4992561;28;19925;-67
2021/08/30 07:01:52;;;;;;;;;;;18.20;99.90;;;16.96;100.00;100834.44;5009827;28;19929;-68
2021/08/30 07:04:19;;;;;;;;;;;18.30;99.90;;;16.97;100.00;100838.03;5015782;28;19991;-68
2021/08/30 07:06:46;;;;;;;;;;;18.20;99.90;;;16.96;100.00;100837.19;5027515;28;19932;-68
2021/08/30 07:09:13;;;;;;;;;;;18.20;99.90;;;16.96;100.00;100839.06;5009465;28;19930;-68
2021/08/30 07:11:40;;;;;;;;;;;18.20;99.90;;;16.97;100.00;100832.53;5010070;28;20028;-68
2021/08/30 07:14:09;;;;;;;;;;;18.20;99.90;;;16.99;100.00;100831.22;5014714;28;19929;-67
2021/08/30 07:16:36;;;;;;;;;;;18.20;99.90;;;16.99;100.00;100835.88;5029145;28;19929;-68
2021/08/30 07:19:03;;;;;;;;;;;18.20;99.90;;;17.00;100.00;100827.44;5029064;28;19925;-68
2021/08/30 07:21:30;;;;;;;;;;;18.30;99.90;;;17.03;100.00;100831.63;5029544;28;20618;-68
2021/08/30 07:23:57;;;;;;;;;;;18.30;99.90;;;17.06;100.00;100830.34;5018613;28;19952;-68
2021/08/30 07:26:25;;;;;;;;;;;18.40;99.90;;;17.07;100.00;100827.38;5007813;28;20452;-68
2021/08/30 07:28:52;;;;;;;;;;;18.40;99.90;;;17.09;100.00;100822.50;5009544;28;19937;-68
2021/08/30 07:31:20;;;;;;;;;;;18.60;99.90;;;17.10;100.00;100835.19;5009698;28;19935;-68
2021/08/30 07:33:48;;;;;;;;;;;18.60;99.90;;;17.11;100.00;100836.88;5013889;28;19932;-68
2021/08/30 07:36:15;;;;;;;;;;;18.60;99.90;;;17.11;100.00;100834.13;5015251;28;20416;-68
2021/08/30 07:38:42;;;;;;;;;;;18.60;99.90;;;17.14;100.00;100832.84;4996757;28;19929;-68
2021/08/30 07:41:10;;;;;;;;;;;18.60;99.90;;;17.13;100.00;100837.50;5005695;28;19952;-68
2021/08/30 07:43:37;;;;;;;;;;;18.60;99.90;;;17.14;100.00;100833.69;5001725;28;20029;-68
2021/08/30 07:46:04;;;;;;;;;;;18.60;99.90;;;17.17;100.00;100832.41;4988576;28;19988;-68
2021/08/30 07:48:32;;;;;;;;;;;18.60;99.90;;;17.17;100.00;100833.25;5006103;28;19929;-68
2021/08/30 07:51:00;;;;;;;;;;;18.60;99.90;;;17.18;100.00;100837.69;4997500;28;19930;-68
2021/08/30 07:53:28;;;;;;;;;;;18.60;99.90;;;17.18;100.00;100834.09;4992617;28;19929;-68
2021/08/30 07:55:56;;;;;;;;;;;18.50;99.90;;;17.19;100.00;100846.78;5000200;28;19934;-68
2021/08/30 07:58:23;;;;;;;;;;;18.50;99.90;;;17.18;100.00;100847.84;4989310;28;19930;-68
2021/08/30 08:00:51;;;;;;;;;;;18.50;99.90;;;17.17;100.00;100855.25;4996029;28;20024;-68
2021/08/30 08:03:18;;;;;;;;;;;18.50;99.90;;;17.17;100.00;100855.25;5006127;28;20024;-68
2021/08/30 08:05:47;;;;;;;;;;;18.60;99.90;;;17.18;100.00;100861.59;5007629;28;20409;-68
2021/08/30 08:08:14;;;;;;;;;;;18.60;99.90;;;17.20;100.00;100863.06;5008835;28;19930;-68
2021/08/30 08:10:43;;;;;;;;;;;18.60;99.90;;;17.23;100.00;100853.53;5008824;28;19957;-68
2021/08/30 08:13:10;;;;;;;;;;;18.70;99.90;;;17.25;100.00;100850.53;5007591;28;19929;-68
2021/08/30 08:15:37;;;;;;;;;;;18.70;99.90;;;17.27;100.00;100853.91;5026233;28;19929;-68
2021/08/30 08:18:05;;;;;;;;;;;18.80;99.90;;;17.31;100.00;100860.69;5013034;28;19979;-68
2021/08/30 08:20:32;;;;;;;;;;;18.90;99.90;;;17.31;100.00;100856.03;5008542;28;19929;-68
2021/08/30 08:23:02;;;;;;;;;;;18.90;99.90;;;17.34;100.00;100858.34;4956842;28;20520;-68
2021/08/30 08:25:29;;;;;;;;;;;19.00;99.90;;;17.36;100.00;100858.09;5026267;28;19933;-68
2021/08/30 08:28:00;;;;;;;;;;;19.00;99.90;;;17.38;100.00;100862.34;5028317;28;20031;-68
2021/08/30 08:30:28;;;;;;;;;;;19.00;99.90;;;17.39;100.00;100857.66;5028224;28;19929;-68
2021/08/30 08:32:55;;;;;;;;;;;19.10;99.90;;;17.42;100.00;100854.47;5027366;28;19975;-68
2021/08/30 08:35:22;;;;;;;;;;;19.20;99.90;;;17.45;100.00;100856.78;5005697;28;19945;-68
2021/08/30 08:37:49;;;;;;;;;;;19.20;99.90;;;17.46;100.00;100858.47;5010543;28;19933;-68
2021/08/30 08:40:18;;;;;;;;;;;19.20;99.90;;;17.48;100.00;100859.09;5043783;23;20608;-71
2021/08/30 08:42:45;;;;;;;;;;;19.30;99.90;;;17.50;100.00;100865.22;5007931;28;19925;-72
2021/08/30 08:45:14;;;;;;;;;;;19.30;99.70;;;17.51;100.00;100864.13;5006064;28;19933;-72
2021/08/30 08:47:42;;;;;;;;;;;19.30;99.70;;;17.52;100.00;100868.59;5008292;28;19972;-73
2021/08/30 08:50:11;;;;;;;;;;;19.30;99.50;;;17.53;100.00;100864.75;5009820;28;19983;-73
2021/08/30 08:52:41;;;;;;;;;;;19.30;99.70;;;17.54;100.00;100869.22;5007568;28;19929;-72
2021/08/30 08:55:09;;;;;;;;;;;19.30;99.40;;;17.56;100.00;100874.50;5020294;28;19936;-72
2021/08/30 08:57:38;;;;;;;;;;;19.30;99.00;;;17.57;100.00;100877.03;4993812;28;19930;-72
2021/08/30 09:00:07;;;;;;;;;;;19.30;99.60;;;17.58;100.00;100867.69;4990905;28;19968;-72
2021/08/30 09:02:35;;;;;;;;;;;19.40;99.10;;;17.58;100.00;100873.19;4991699;28;20405;-72
2021/08/30 09:05:04;;;;;;;;;;;19.40;99.00;;;17.60;100.00;100870.22;5006184;28;20568;-72
2021/08/30 09:07:35;;;;;;;;;;;19.40;99.30;;;17.58;100.00;100873.19;5011475;28;19929;-72
2021/08/30 09:10:04;;;;;;;;;;;19.40;99.60;;;17.61;100.00;100865.56;5010376;28;19936;-72
2021/08/30 09:12:31;;;;;;;;;;;19.30;98.80;;;17.59;100.00;100869.41;5009673;28;19991;-72
2021/08/30 09:15:10;;;;;;;;;;;19.20;99.40;;;17.59;100.00;100874.91;5007932;28;20316;-72
2021/08/30 09:17:37;;;;;;;;;;;19.20;99.60;;;17.61;100.00;100873.81;5014989;28;19933;-72
2021/08/30 09:20:05;;;;;;;;;;;19.20;99.60;;;17.61;100.00;100871.94;5015057;28;19929;-72
2021/08/30 09:22:34;;;;;;;;;;;19.20;99.20;;;17.61;100.00;100871.06;5015392;28;20117;-73
2021/08/30 09:25:06;;;;;;;;;;;19.20;99.70;;;17.61;100.00;100874.69;5014563;28;19936;-73
2021/08/30 09:27:37;;;;;;;;;;;19.20;99.30;;;17.62;100.00;100868.09;4995061;28;19933;-72
2021/08/30 09:30:11;;;;;;;;;;;19.30;99.40;;;17.65;100.00;100877.81;5014275;28;19925;-72
2021/08/30 09:32:40;;;;;;;;;;;19.30;98.60;;;17.66;100.00;100869.31;5012061;28;20361;-72
2021/08/30 09:35:09;;;;;;;;;;;19.30;98.20;;;17.69;100.00;100874.41;5008754;28;19953;-72
2021/08/30 09:37:39;;;;;;;;;;;19.40;98.60;;;17.71;100.00;100882.44;5011253;28;19984;-72
2021/08/30 09:40:08;;;;;;;;;;;19.40;97.50;;;17.74;100.00;100882.84;5011653;28;19930;-72
2021/08/30 09:42:36;;;;;;;;;;;19.50;97.60;;;17.77;100.00;100881.53;5012515;28;19926;-73
2021/08/30 09:45:13;;;;;;;;;;;19.50;97.10;;;17.79;100.00;100874.72;5018119;28;20435;-72
2021/08/30 09:47:51;;;;;;;;;;;19.60;97.10;;;17.82;100.00;100884.47;4999707;28;19930;-73
2021/08/30 09:50:19;;;;;;;;;;;19.60;97.30;;;17.84;100.00;100878.72;4995113;28;20048;-72
2021/08/30 09:52:47;;;;;;;;;;;19.60;97.30;;;17.83;100.00;100885.31;4994413;28;19929;-72
2021/08/30 09:55:14;;;;;;;;;;;19.70;96.90;;;17.85;100.00;100878.53;5010977;28;19956;-72
2021/08/30 09:57:48;;;;;;;;;;;19.70;97.10;;;17.87;100.00;100881.91;5011909;28;19933;-73
2021/08/30 10:00:18;;;;;;;;;;;19.70;96.70;;;17.91;100.00;100871.28;5012582;28;19926;-73
2021/08/30 10:02:47;;;;;;;;;;;19.80;96.70;;;17.93;100.00;100883.78;5012224;28;20344;-74
2021/08/30 10:05:16;;;;;;;;;;;19.80;96.30;;;17.93;100.00;100872.78;5010369;28;20365;-72
2021/08/30 10:07:44;;;;;;;;;;;19.80;95.90;;;17.94;100.00;100882.69;5013516;28;19945;-73
2021/08/30 10:10:12;;;;;;;;;;;19.80;95.50;;;17.95;100.00;100884.41;5009536;28;19936;-71
2021/08/30 10:12:39;;;;;;;;;;;19.80;94.60;;;17.97;100.00;100881.41;5022732;28;20395;-72
2021/08/30 10:15:08;;;;;;;;;;;19.80;95.00;;;17.98;100.00;100878.44;5024728;28;19936;-72
2021/08/30 10:17:43;;;;;;;;;;;19.80;95.60;;;17.98;100.00;100866.56;5030516;28;19925;-72
2021/08/30 10:20:15;;;;;;;;;;;19.80;94.70;;;17.98;100.00;100872.91;5012196;28;19929;-71
2021/08/30 10:22:42;;;;;;;;;;;19.70;95.70;;;17.97;100.00;100868.50;5012894;28;19933;-71
2021/08/30 10:25:16;;;;;;;;;;;19.70;96.60;;;17.96;100.00;100875.06;5024760;28;20597;-71
2021/08/30 10:27:55;;;;;;;;;;;19.70;96.80;;;17.97;100.00;100868.50;5032540;28;19929;-71
2021/08/30 10:30:23;;;;;;;;;;;19.70;96.00;;;18.01;100.00;100876.28;5032834;28;20387;-72
2021/08/30 10:32:56;;;;;;;;;;;19.80;96.40;;;18.02;100.00;100878.81;5029333;28;20359;-71
2021/08/30 10:35:26;;;;;;;;;;;20.00;94.90;;;18.06;100.00;100877.28;5027834;28;19983;-71
2021/08/30 10:37:57;;;;;;;;;;;20.10;93.90;;;18.09;100.00;100879.63;4999913;28;20314;-71
2021/08/30 10:40:25;;;;;;;;;;;20.30;94.80;;;18.12;100.00;100881.06;5011067;28;20703;-71
2021/08/30 10:43:08;;;;;;;;;;;20.40;94.30;;;18.14;100.00;100877.03;5012526;28;19930;-71
2021/08/30 10:45:39;;;;;;;;;;;20.40;93.50;;;18.16;100.00;100874.03;5010943;28;19930;-71
2021/08/30 10:48:10;;;;;;;;;;;20.30;94.20;;;18.16;100.00;100868.53;5010542;28;19976;-71
2021/08/30 10:50:43;;;;;;;;;;;20.30;93.00;;;18.19;100.00;100875.50;4996024;28;19952;-71
2021/08/30 10:53:17;;;;;;;;;;;20.30;93.70;;;18.20;100.00;100877.19;5005821;28;19936;-72
2021/08/30 10:55:47;;;;;;;;;;;20.30;94.20;;;18.19;100.00;100879.09;5004508;28;19941;-72
2021/08/30 10:58:19;;;;;;;;;;;20.30;91.50;;;18.21;99.60;100882.47;4973153;28;19929;-71
2021/08/30 11:00:50;;;;;;;;;;;20.30;92.60;;;18.27;99.72;100878.81;4990849;28;19980;-72
2021/08/30 11:03:33;;;;;;;;;;;20.40;92.20;;;18.32;100.00;100876.22;4994011;28;19933;-72
2021/08/30 11:06:02;;;;;;;;;;;20.50;93.10;;;18.34;100.00;100881.50;5009422;28;19929;-72
2021/08/30 11:08:29;;;;;;;;;;;20.60;92.70;;;18.34;99.38;100876.84;5008764;28;20270;-72
2021/08/30 11:11:08;;;;;;;;;;;20.70;92.10;;;18.36;99.95;100874.69;5009874;28;20288;-71